sensor_id;sensor_type;location;lat;lon;timestamp;P1;durP1;ratioP1;P2;durP2;ratioP2
70744;SDS011;59284;31.390;34.904;2022-07-06T00:01:46;30.55;;;14.98;;
70744;SDS011;59284;31.390;34.904;2022-07-06T00:04:12;25.07;;;13.67;;
70744;SDS011;59284;31.390;34.904;2022-07-06T00:06:38;28.35;;;15.55;;
70744;SDS011;59284;31.390;34.904;2022-07-06T00:09:04;30.45;;;15.82;;
70744;SDS011;59284;31.390;34.904;2022-07-06T00:11:30;32.23;;;15.87;;
70744;SDS011;59284;31.390;34.904;2022-07-06T00:13:56;38.60;;;18.25;;
70744;SDS011;59284;31.390;34.904;2022-07-06T00:16:22;28.30;;;17.02;;
70744;SDS011;59284;31.390;34.904;2022-07-06T00:18:48;33.13;;;16.58;;
70744;SDS011;59284;31.390;34.904;2022-07-06T00:21:14;32.42;;;16.88;;
70744;SDS011;59284;31.390;34.904;2022-07-06T00:23:41;33.20;;;16.47;;
70744;SDS011;59284;31.390;34.904;2022-07-06T00:26:07;30.30;;;15.82;;
70744;SDS011;59284;31.390;34.904;2022-07-06T00:28:33;30.08;;;16.58;;
70744;SDS011;59284;31.390;34.904;2022-07-06T00:30:58;22.87;;;13.77;;
70744;SDS011;59284;31.390;34.904;2022-07-06T00:33:24;25.75;;;14.10;;
70744;SDS011;59284;31.390;34.904;2022-07-06T00:35:50;28.00;;;15.43;;
70744;SDS011;59284;31.390;34.904;2022-07-06T00:38:16;27.30;;;16.03;;
70744;SDS011;59284;31.390;34.904;2022-07-06T00:40:42;37.63;;;17.45;;
70744;SDS011;59284;31.390;34.904;2022-07-06T00:43:08;29.42;;;17.58;;
70744;SDS011;59284;31.390;34.904;2022-07-06T00:45:33;33.10;;;18.70;;
70744;SDS011;59284;31.390;34.904;2022-07-06T00:47:59;37.45;;;19.10;;
70744;SDS011;59284;31.390;34.904;2022-07-06T00:50:27;33.88;;;19.23;;
70744;SDS011;59284;31.390;34.904;2022-07-06T00:55:24;33.83;;;17.77;;
70744;SDS011;59284;31.390;34.904;2022-07-06T00:57:53;41.15;;;19.45;;
70744;SDS011;59284;31.390;34.904;2022-07-06T01:00:20;38.63;;;19.25;;
70744;SDS011;59284;31.390;34.904;2022-07-06T01:02:47;35.53;;;18.02;;
70744;SDS011;59284;31.390;34.904;2022-07-06T01:05:14;35.70;;;17.93;;
70744;SDS011;59284;31.390;34.904;2022-07-06T01:07:42;35.88;;;17.50;;
70744;SDS011;59284;31.390;34.904;2022-07-06T01:10:11;34.38;;;18.63;;
70744;SDS011;59284;31.390;34.904;2022-07-06T01:12:39;31.55;;;16.65;;
70744;SDS011;59284;31.390;34.904;2022-07-06T01:15:09;33.63;;;14.90;;
70744;SDS011;59284;31.390;34.904;2022-07-06T01:17:40;28.73;;;12.80;;
70744;SDS011;59284;31.390;34.904;2022-07-06T01:20:14;25.38;;;12.25;;
70744;SDS011;59284;31.390;34.904;2022-07-06T01:22:44;25.00;;;13.45;;
70744;SDS011;59284;31.390;34.904;2022-07-06T01:25:11;33.55;;;13.70;;
70744;SDS011;59284;31.390;34.904;2022-07-06T01:27:38;31.05;;;13.13;;
70744;SDS011;59284;31.390;34.904;2022-07-06T01:30:06;33.27;;;12.93;;
70744;SDS011;59284;31.390;34.904;2022-07-06T01:32:34;25.75;;;12.55;;
70744;SDS011;59284;31.390;34.904;2022-07-06T01:35:01;36.78;;;12.07;;
70744;SDS011;59284;31.390;34.904;2022-07-06T01:37:27;26.30;;;11.40;;
70744;SDS011;59284;31.390;34.904;2022-07-06T01:39:53;30.30;;;11.80;;
70744;SDS011;59284;31.390;34.904;2022-07-06T01:42:22;28.75;;;11.68;;
70744;SDS011;59284;31.390;34.904;2022-07-06T01:44:48;32.35;;;11.32;;
70744;SDS011;59284;31.390;34.904;2022-07-06T01:47:13;25.70;;;11.17;;
70744;SDS011;59284;31.390;34.904;2022-07-06T01:49:39;27.33;;;11.50;;
70744;SDS011;59284;31.390;34.904;2022-07-06T01:52:05;25.53;;;11.93;;
70744;SDS011;59284;31.390;34.904;2022-07-06T01:54:31;28.33;;;11.82;;
70744;SDS011;59284;31.390;34.904;2022-07-06T01:56:56;27.05;;;12.52;;
70744;SDS011;59284;31.390;34.904;2022-07-06T01:59:22;24.27;;;13.00;;
70744;SDS011;59284;31.390;34.904;2022-07-06T02:01:48;27.83;;;14.20;;
70744;SDS011;59284;31.390;34.904;2022-07-06T02:04:14;23.97;;;13.77;;
70744;SDS011;59284;31.390;34.904;2022-07-06T02:06:39;36.23;;;14.23;;
70744;SDS011;59284;31.390;34.904;2022-07-06T02:09:05;30.97;;;14.67;;
70744;SDS011;59284;31.390;34.904;2022-07-06T02:11:31;33.78;;;14.20;;
70744;SDS011;59284;31.390;34.904;2022-07-06T02:13:57;30.17;;;13.63;;
70744;SDS011;59284;31.390;34.904;2022-07-06T02:16:22;26.70;;;13.60;;
70744;SDS011;59284;31.390;34.904;2022-07-06T02:18:48;29.43;;;13.87;;
70744;SDS011;59284;31.390;34.904;2022-07-06T02:21:14;25.50;;;13.27;;
70744;SDS011;59284;31.390;34.904;2022-07-06T02:23:39;29.57;;;13.43;;
70744;SDS011;59284;31.390;34.904;2022-07-06T02:26:05;29.35;;;13.85;;
70744;SDS011;59284;31.390;34.904;2022-07-06T02:28:31;30.40;;;12.48;;
70744;SDS011;59284;31.390;34.904;2022-07-06T02:30:57;31.83;;;13.83;;
70744;SDS011;59284;31.390;34.904;2022-07-06T02:33:23;28.27;;;13.77;;
70744;SDS011;59284;31.390;34.904;2022-07-06T02:35:49;32.05;;;13.68;;
70744;SDS011;59284;31.390;34.904;2022-07-06T02:38:15;40.43;;;15.00;;
70744;SDS011;59284;31.390;34.904;2022-07-06T02:40:40;30.33;;;12.80;;
70744;SDS011;59284;31.390;34.904;2022-07-06T02:43:06;32.53;;;13.73;;
70744;SDS011;59284;31.390;34.904;2022-07-06T02:45:32;28.07;;;12.43;;
70744;SDS011;59284;31.390;34.904;2022-07-06T02:47:58;32.70;;;14.35;;
70744;SDS011;59284;31.390;34.904;2022-07-06T02:50:24;31.83;;;13.97;;
70744;SDS011;59284;31.390;34.904;2022-07-06T02:52:52;29.13;;;13.30;;
70744;SDS011;59284;31.390;34.904;2022-07-06T02:55:20;33.15;;;13.43;;
70744;SDS011;59284;31.390;34.904;2022-07-06T02:57:46;29.92;;;13.80;;
70744;SDS011;59284;31.390;34.904;2022-07-06T03:00:12;31.87;;;13.83;;
70744;SDS011;59284;31.390;34.904;2022-07-06T03:02:38;24.30;;;13.40;;
70744;SDS011;59284;31.390;34.904;2022-07-06T03:05:05;31.58;;;13.90;;
70744;SDS011;59284;31.390;34.904;2022-07-06T03:07:41;25.02;;;13.13;;
70744;SDS011;59284;31.390;34.904;2022-07-06T03:10:18;24.48;;;13.13;;
70744;SDS011;59284;31.390;34.904;2022-07-06T03:13:07;25.80;;;12.60;;
70744;SDS011;59284;31.390;34.904;2022-07-06T03:15:38;25.67;;;13.75;;
70744;SDS011;59284;31.390;34.904;2022-07-06T03:18:09;26.23;;;13.23;;
70744;SDS011;59284;31.390;34.904;2022-07-06T03:20:51;29.58;;;14.10;;
70744;SDS011;59284;31.390;34.904;2022-07-06T03:23:44;27.10;;;14.27;;
70744;SDS011;59284;31.390;34.904;2022-07-06T03:26:43;26.90;;;14.00;;
70744;SDS011;59284;31.390;34.904;2022-07-06T03:29:13;32.72;;;14.82;;
70744;SDS011;59284;31.390;34.904;2022-07-06T03:32:03;29.65;;;15.43;;
70744;SDS011;59284;31.390;34.904;2022-07-06T03:34:31;28.48;;;15.63;;
70744;SDS011;59284;31.390;34.904;2022-07-06T03:37:05;25.27;;;15.00;;
70744;SDS011;59284;31.390;34.904;2022-07-06T03:39:35;28.13;;;14.20;;
70744;SDS011;59284;31.390;34.904;2022-07-06T03:42:03;26.55;;;15.05;;
70744;SDS011;59284;31.390;34.904;2022-07-06T03:44:29;35.72;;;16.13;;
70744;SDS011;59284;31.390;34.904;2022-07-06T03:46:55;31.33;;;15.77;;
70744;SDS011;59284;31.390;34.904;2022-07-06T03:49:22;28.10;;;14.73;;
70744;SDS011;59284;31.390;34.904;2022-07-06T03:51:52;30.55;;;14.55;;
70744;SDS011;59284;31.390;34.904;2022-07-06T03:54:18;25.77;;;14.52;;
70744;SDS011;59284;31.390;34.904;2022-07-06T03:56:45;27.67;;;14.17;;
70744;SDS011;59284;31.390;34.904;2022-07-06T03:59:13;25.02;;;12.95;;
70744;SDS011;59284;31.390;34.904;2022-07-06T04:01:42;23.20;;;12.38;;
70744;SDS011;59284;31.390;34.904;2022-07-06T04:04:09;19.80;;;12.27;;
70744;SDS011;59284;31.390;34.904;2022-07-06T04:06:35;24.00;;;11.57;;
70744;SDS011;59284;31.390;34.904;2022-07-06T04:09:00;19.83;;;11.80;;
70744;SDS011;59284;31.390;34.904;2022-07-06T04:11:29;18.63;;;10.85;;
70744;SDS011;59284;31.390;34.904;2022-07-06T04:13:55;21.98;;;11.13;;
70744;SDS011;59284;31.390;34.904;2022-07-06T04:16:20;21.33;;;11.53;;
70744;SDS011;59284;31.390;34.904;2022-07-06T04:18:47;21.83;;;10.70;;
70744;SDS011;59284;31.390;34.904;2022-07-06T04:21:13;22.98;;;11.48;;
70744;SDS011;59284;31.390;34.904;2022-07-06T04:23:39;16.50;;;11.03;;
70744;SDS011;59284;31.390;34.904;2022-07-06T04:26:08;22.48;;;12.77;;
70744;SDS011;59284;31.390;34.904;2022-07-06T04:28:43;15.20;;;9.17;;
70744;SDS011;59284;31.390;34.904;2022-07-06T04:31:15;16.85;;;11.05;;
70744;SDS011;59284;31.390;34.904;2022-07-06T04:33:50;18.65;;;9.35;;
70744;SDS011;59284;31.390;34.904;2022-07-06T04:36:18;19.58;;;11.00;;
70744;SDS011;59284;31.390;34.904;2022-07-06T04:38:45;18.38;;;9.93;;
70744;SDS011;59284;31.390;34.904;2022-07-06T04:41:12;17.70;;;8.77;;
70744;SDS011;59284;31.390;34.904;2022-07-06T04:43:38;14.07;;;6.57;;
70744;SDS011;59284;31.390;34.904;2022-07-06T04:46:04;15.57;;;7.47;;
70744;SDS011;59284;31.390;34.904;2022-07-06T04:48:30;11.73;;;6.65;;
70744;SDS011;59284;31.390;34.904;2022-07-06T04:50:57;16.70;;;6.67;;
70744;SDS011;59284;31.390;34.904;2022-07-06T04:53:23;13.25;;;6.70;;
70744;SDS011;59284;31.390;34.904;2022-07-06T04:55:49;14.75;;;7.22;;
70744;SDS011;59284;31.390;34.904;2022-07-06T04:58:14;15.43;;;7.73;;
70744;SDS011;59284;31.390;34.904;2022-07-06T05:00:40;16.08;;;8.25;;
70744;SDS011;59284;31.390;34.904;2022-07-06T05:03:06;16.77;;;8.90;;
70744;SDS011;59284;31.390;34.904;2022-07-06T05:05:32;22.23;;;8.88;;
70744;SDS011;59284;31.390;34.904;2022-07-06T05:07:57;11.40;;;7.83;;
70744;SDS011;59284;31.390;34.904;2022-07-06T05:10:23;15.82;;;8.32;;
70744;SDS011;59284;31.390;34.904;2022-07-06T05:12:48;16.27;;;8.47;;
70744;SDS011;59284;31.390;34.904;2022-07-06T05:15:14;16.20;;;8.75;;
70744;SDS011;59284;31.390;34.904;2022-07-06T05:17:40;19.00;;;8.30;;
70744;SDS011;59284;31.390;34.904;2022-07-06T05:20:07;12.77;;;6.82;;
70744;SDS011;59284;31.390;34.904;2022-07-06T05:22:33;13.73;;;7.70;;
70744;SDS011;59284;31.390;34.904;2022-07-06T05:24:59;12.07;;;6.20;;
70744;SDS011;59284;31.390;34.904;2022-07-06T05:27:24;11.07;;;5.88;;
70744;SDS011;59284;31.390;34.904;2022-07-06T05:29:50;15.00;;;6.20;;
70744;SDS011;59284;31.390;34.904;2022-07-06T05:32:15;8.13;;;4.32;;
70744;SDS011;59284;31.390;34.904;2022-07-06T05:34:41;9.73;;;4.97;;
70744;SDS011;59284;31.390;34.904;2022-07-06T05:37:07;10.95;;;5.28;;
70744;SDS011;59284;31.390;34.904;2022-07-06T05:39:32;10.37;;;5.30;;
70744;SDS011;59284;31.390;34.904;2022-07-06T05:41:58;9.88;;;4.78;;
70744;SDS011;59284;31.390;34.904;2022-07-06T05:44:24;11.73;;;4.30;;
70744;SDS011;59284;31.390;34.904;2022-07-06T05:46:50;6.80;;;4.22;;
70744;SDS011;59284;31.390;34.904;2022-07-06T05:49:15;8.03;;;4.53;;
70744;SDS011;59284;31.390;34.904;2022-07-06T05:51:59;11.70;;;3.47;;
70744;SDS011;59284;31.390;34.904;2022-07-06T05:54:25;6.90;;;3.90;;
70744;SDS011;59284;31.390;34.904;2022-07-06T05:56:51;11.53;;;4.27;;
70744;SDS011;59284;31.390;34.904;2022-07-06T05:59:16;9.10;;;4.00;;
70744;SDS011;59284;31.390;34.904;2022-07-06T06:01:42;10.73;;;4.07;;
70744;SDS011;59284;31.390;34.904;2022-07-06T06:04:08;7.70;;;3.90;;
70744;SDS011;59284;31.390;34.904;2022-07-06T06:06:34;8.50;;;3.80;;
70744;SDS011;59284;31.390;34.904;2022-07-06T06:09:00;8.00;;;4.32;;
70744;SDS011;59284;31.390;34.904;2022-07-06T06:11:25;12.20;;;4.87;;
70744;SDS011;59284;31.390;34.904;2022-07-06T06:13:51;9.70;;;5.05;;
70744;SDS011;59284;31.390;34.904;2022-07-06T06:16:17;6.90;;;4.43;;
70744;SDS011;59284;31.390;34.904;2022-07-06T06:18:42;8.65;;;4.88;;
70744;SDS011;59284;31.390;34.904;2022-07-06T06:21:08;8.77;;;4.60;;
70744;SDS011;59284;31.390;34.904;2022-07-06T06:23:35;10.50;;;4.32;;
70744;SDS011;59284;31.390;34.904;2022-07-06T06:26:00;7.63;;;3.97;;
70744;SDS011;59284;31.390;34.904;2022-07-06T06:28:26;9.80;;;4.17;;
70744;SDS011;59284;31.390;34.904;2022-07-06T06:30:52;9.98;;;4.20;;
70744;SDS011;59284;31.390;34.904;2022-07-06T06:33:18;11.77;;;4.50;;
70744;SDS011;59284;31.390;34.904;2022-07-06T06:35:45;12.27;;;4.15;;
70744;SDS011;59284;31.390;34.904;2022-07-06T06:38:12;9.20;;;4.30;;
70744;SDS011;59284;31.390;34.904;2022-07-06T06:40:39;6.77;;;4.10;;
70744;SDS011;59284;31.390;34.904;2022-07-06T06:43:05;6.53;;;3.65;;
70744;SDS011;59284;31.390;34.904;2022-07-06T06:45:31;14.32;;;4.50;;
70744;SDS011;59284;31.390;34.904;2022-07-06T06:47:57;11.50;;;4.40;;
70744;SDS011;59284;31.390;34.904;2022-07-06T06:50:23;10.75;;;4.18;;
70744;SDS011;59284;31.390;34.904;2022-07-06T06:52:49;9.20;;;4.47;;
70744;SDS011;59284;31.390;34.904;2022-07-06T06:55:16;10.25;;;4.32;;
70744;SDS011;59284;31.390;34.904;2022-07-06T06:57:43;8.90;;;4.13;;
70744;SDS011;59284;31.390;34.904;2022-07-06T07:00:09;14.48;;;4.60;;
70744;SDS011;59284;31.390;34.904;2022-07-06T07:02:35;12.60;;;4.00;;
70744;SDS011;59284;31.390;34.904;2022-07-06T07:05:01;11.32;;;4.10;;
70744;SDS011;59284;31.390;34.904;2022-07-06T07:07:28;9.35;;;4.40;;
70744;SDS011;59284;31.390;34.904;2022-07-06T07:09:53;12.47;;;4.50;;
70744;SDS011;59284;31.390;34.904;2022-07-06T07:12:19;9.43;;;4.13;;
70744;SDS011;59284;31.390;34.904;2022-07-06T07:14:45;9.27;;;4.35;;
70744;SDS011;59284;31.390;34.904;2022-07-06T07:17:11;8.40;;;4.20;;
70744;SDS011;59284;31.390;34.904;2022-07-06T07:19:37;16.73;;;5.07;;
70744;SDS011;59284;31.390;34.904;2022-07-06T07:22:03;8.77;;;3.50;;
70744;SDS011;59284;31.390;34.904;2022-07-06T07:24:30;8.15;;;3.35;;
70744;SDS011;59284;31.390;34.904;2022-07-06T07:26:55;8.70;;;4.20;;
70744;SDS011;59284;31.390;34.904;2022-07-06T07:29:21;10.02;;;4.28;;
70744;SDS011;59284;31.390;34.904;2022-07-06T07:31:47;12.27;;;3.97;;
70744;SDS011;59284;31.390;34.904;2022-07-06T07:34:12;13.00;;;4.10;;
70744;SDS011;59284;31.390;34.904;2022-07-06T07:36:38;9.43;;;4.23;;
70744;SDS011;59284;31.390;34.904;2022-07-06T07:39:04;7.13;;;3.58;;
70744;SDS011;59284;31.390;34.904;2022-07-06T07:41:30;7.63;;;3.70;;
70744;SDS011;59284;31.390;34.904;2022-07-06T07:43:56;11.33;;;3.30;;
70744;SDS011;59284;31.390;34.904;2022-07-06T07:46:22;9.63;;;3.60;;
70744;SDS011;59284;31.390;34.904;2022-07-06T07:48:47;11.63;;;3.40;;
70744;SDS011;59284;31.390;34.904;2022-07-06T07:51:13;10.60;;;3.80;;
70744;SDS011;59284;31.390;34.904;2022-07-06T07:53:39;8.45;;;3.65;;
70744;SDS011;59284;31.390;34.904;2022-07-06T07:56:05;10.30;;;3.80;;
70744;SDS011;59284;31.390;34.904;2022-07-06T07:58:31;7.97;;;3.60;;
70744;SDS011;59284;31.390;34.904;2022-07-06T08:00:56;14.32;;;3.95;;
70744;SDS011;59284;31.390;34.904;2022-07-06T08:03:22;9.93;;;4.13;;
70744;SDS011;59284;31.390;34.904;2022-07-06T08:05:48;8.30;;;3.83;;
70744;SDS011;59284;31.390;34.904;2022-07-06T08:08:14;5.47;;;2.97;;
70744;SDS011;59284;31.390;34.904;2022-07-06T08:10:40;8.85;;;3.30;;
70744;SDS011;59284;31.390;34.904;2022-07-06T08:13:06;8.65;;;4.25;;
70744;SDS011;59284;31.390;34.904;2022-07-06T08:15:36;7.38;;;2.95;;
70744;SDS011;59284;31.390;34.904;2022-07-06T08:18:02;11.17;;;3.63;;
70744;SDS011;59284;31.390;34.904;2022-07-06T08:20:27;4.72;;;2.80;;
70744;SDS011;59284;31.390;34.904;2022-07-06T08:22:53;7.47;;;3.15;;
70744;SDS011;59284;31.390;34.904;2022-07-06T08:25:19;8.33;;;3.57;;
70744;SDS011;59284;31.390;34.904;2022-07-06T08:27:45;7.93;;;3.00;;
70744;SDS011;59284;31.390;34.904;2022-07-06T08:30:11;13.53;;;3.87;;
70744;SDS011;59284;31.390;34.904;2022-07-06T08:32:43;7.47;;;3.22;;
70744;SDS011;59284;31.390;34.904;2022-07-06T08:35:09;7.78;;;3.08;;
70744;SDS011;59284;31.390;34.904;2022-07-06T08:37:35;6.75;;;3.30;;
70744;SDS011;59284;31.390;34.904;2022-07-06T08:40:01;8.67;;;3.30;;
70744;SDS011;59284;31.390;34.904;2022-07-06T08:42:31;7.97;;;3.28;;
70744;SDS011;59284;31.390;34.904;2022-07-06T08:44:59;6.22;;;3.17;;
70744;SDS011;59284;31.390;34.904;2022-07-06T08:47:26;8.70;;;3.60;;
70744;SDS011;59284;31.390;34.904;2022-07-06T08:49:53;6.35;;;2.80;;
70744;SDS011;59284;31.390;34.904;2022-07-06T08:52:20;12.23;;;3.33;;
70744;SDS011;59284;31.390;34.904;2022-07-06T08:54:47;11.93;;;3.40;;
70744;SDS011;59284;31.390;34.904;2022-07-06T08:57:14;7.85;;;3.53;;
70744;SDS011;59284;31.390;34.904;2022-07-06T08:59:40;6.78;;;3.35;;
70744;SDS011;59284;31.390;34.904;2022-07-06T09:02:05;5.60;;;2.90;;
70744;SDS011;59284;31.390;34.904;2022-07-06T09:04:35;9.47;;;2.70;;
70744;SDS011;59284;31.390;34.904;2022-07-06T09:07:01;7.43;;;2.97;;
70744;SDS011;59284;31.390;34.904;2022-07-06T09:09:28;7.18;;;2.65;;
70744;SDS011;59284;31.390;34.904;2022-07-06T09:11:56;14.05;;;4.13;;
70744;SDS011;59284;31.390;34.904;2022-07-06T09:14:22;7.43;;;3.40;;
70744;SDS011;59284;31.390;34.904;2022-07-06T09:16:51;14.68;;;3.67;;
70744;SDS011;59284;31.390;34.904;2022-07-06T09:19:26;10.73;;;3.33;;
70744;SDS011;59284;31.390;34.904;2022-07-06T09:21:55;10.10;;;3.17;;
70744;SDS011;59284;31.390;34.904;2022-07-06T09:24:21;7.50;;;3.00;;
70744;SDS011;59284;31.390;34.904;2022-07-06T09:26:47;5.28;;;2.55;;
70744;SDS011;59284;31.390;34.904;2022-07-06T09:29:13;6.82;;;2.88;;
70744;SDS011;59284;31.390;34.904;2022-07-06T09:31:40;7.07;;;2.90;;
70744;SDS011;59284;31.390;34.904;2022-07-06T09:34:06;4.82;;;2.50;;
70744;SDS011;59284;31.390;34.904;2022-07-06T09:36:39;12.48;;;3.33;;
70744;SDS011;59284;31.390;34.904;2022-07-06T09:39:18;9.25;;;3.00;;
70744;SDS011;59284;31.390;34.904;2022-07-06T09:41:45;9.35;;;2.58;;
70744;SDS011;59284;31.390;34.904;2022-07-06T09:44:12;4.60;;;2.30;;
70744;SDS011;59284;31.390;34.904;2022-07-06T09:46:45;9.18;;;2.97;;
70744;SDS011;59284;31.390;34.904;2022-07-06T09:49:11;8.70;;;2.75;;
70744;SDS011;59284;31.390;34.904;2022-07-06T09:51:37;8.68;;;3.38;;
70744;SDS011;59284;31.390;34.904;2022-07-06T09:54:07;7.13;;;2.97;;
70744;SDS011;59284;31.390;34.904;2022-07-06T09:56:39;6.80;;;2.60;;
70744;SDS011;59284;31.390;34.904;2022-07-06T09:59:12;5.13;;;2.10;;
70744;SDS011;59284;31.390;34.904;2022-07-06T10:01:40;8.52;;;2.75;;
70744;SDS011;59284;31.390;34.904;2022-07-06T10:04:07;6.22;;;2.97;;
70744;SDS011;59284;31.390;34.904;2022-07-06T10:06:34;9.17;;;3.13;;
70744;SDS011;59284;31.390;34.904;2022-07-06T10:09:01;7.00;;;3.03;;
70744;SDS011;59284;31.390;34.904;2022-07-06T10:11:31;6.22;;;2.17;;
70744;SDS011;59284;31.390;34.904;2022-07-06T10:14:03;10.00;;;2.50;;
70744;SDS011;59284;31.390;34.904;2022-07-06T10:16:30;10.02;;;3.25;;
70744;SDS011;59284;31.390;34.904;2022-07-06T10:18:56;5.00;;;2.63;;
70744;SDS011;59284;31.390;34.904;2022-07-06T10:21:24;6.30;;;2.22;;
70744;SDS011;59284;31.390;34.904;2022-07-06T10:23:50;9.00;;;2.30;;
70744;SDS011;59284;31.390;34.904;2022-07-06T10:26:17;6.18;;;2.10;;
70744;SDS011;59284;31.390;34.904;2022-07-06T10:28:44;8.18;;;2.28;;
70744;SDS011;59284;31.390;34.904;2022-07-06T10:31:13;8.23;;;2.40;;
70744;SDS011;59284;31.390;34.904;2022-07-06T10:33:41;7.68;;;2.50;;
70744;SDS011;59284;31.390;34.904;2022-07-06T10:36:08;5.47;;;2.55;;
70744;SDS011;59284;31.390;34.904;2022-07-06T10:38:35;7.82;;;2.70;;
70744;SDS011;59284;31.390;34.904;2022-07-06T10:41:01;6.50;;;2.60;;
70744;SDS011;59284;31.390;34.904;2022-07-06T10:43:34;5.80;;;2.85;;
70744;SDS011;59284;31.390;34.904;2022-07-06T10:46:10;8.68;;;3.17;;
70744;SDS011;59284;31.390;34.904;2022-07-06T10:48:42;6.90;;;2.20;;
70744;SDS011;59284;31.390;34.904;2022-07-06T10:51:12;14.27;;;3.17;;
70744;SDS011;59284;31.390;34.904;2022-07-06T10:53:49;7.53;;;2.37;;
70744;SDS011;59284;31.390;34.904;2022-07-06T10:56:43;9.75;;;2.60;;
70744;SDS011;59284;31.390;34.904;2022-07-06T10:59:14;8.68;;;2.15;;
70744;SDS011;59284;31.390;34.904;2022-07-06T11:02:11;9.63;;;2.47;;
70744;SDS011;59284;31.390;34.904;2022-07-06T11:04:36;7.00;;;2.35;;
70744;SDS011;59284;31.390;34.904;2022-07-06T11:07:14;8.33;;;2.30;;
70744;SDS011;59284;31.390;34.904;2022-07-06T11:09:41;11.27;;;2.28;;
70744;SDS011;59284;31.390;34.904;2022-07-06T11:12:18;5.90;;;2.50;;
70744;SDS011;59284;31.390;34.904;2022-07-06T11:14:45;7.13;;;2.42;;
70744;SDS011;59284;31.390;34.904;2022-07-06T11:17:13;8.32;;;2.88;;
70744;SDS011;59284;31.390;34.904;2022-07-06T11:19:58;6.10;;;2.43;;
70744;SDS011;59284;31.390;34.904;2022-07-06T11:22:37;5.53;;;2.45;;
70744;SDS011;59284;31.390;34.904;2022-07-06T11:25:04;8.07;;;2.45;;
70744;SDS011;59284;31.390;34.904;2022-07-06T11:27:31;7.03;;;2.05;;
70744;SDS011;59284;31.390;34.904;2022-07-06T11:29:59;8.10;;;2.65;;
70744;SDS011;59284;31.390;34.904;2022-07-06T11:32:25;5.40;;;2.03;;
70744;SDS011;59284;31.390;34.904;2022-07-06T11:34:52;13.70;;;2.80;;
70744;SDS011;59284;31.390;34.904;2022-07-06T11:37:18;5.72;;;2.60;;
70744;SDS011;59284;31.390;34.904;2022-07-06T11:39:46;7.78;;;2.50;;
70744;SDS011;59284;31.390;34.904;2022-07-06T11:42:13;8.20;;;2.38;;
70744;SDS011;59284;31.390;34.904;2022-07-06T11:44:41;7.70;;;2.23;;
70744;SDS011;59284;31.390;34.904;2022-07-06T11:47:08;6.68;;;2.53;;
70744;SDS011;59284;31.390;34.904;2022-07-06T11:49:35;4.63;;;2.35;;
70744;SDS011;59284;31.390;34.904;2022-07-06T11:52:09;5.43;;;2.67;;
70744;SDS011;59284;31.390;34.904;2022-07-06T11:54:36;6.67;;;2.40;;
70744;SDS011;59284;31.390;34.904;2022-07-06T11:57:02;8.00;;;2.42;;
70744;SDS011;59284;31.390;34.904;2022-07-06T11:59:32;6.88;;;2.58;;
70744;SDS011;59284;31.390;34.904;2022-07-06T12:04:28;9.13;;;2.60;;
70744;SDS011;59284;31.390;34.904;2022-07-06T12:06:55;7.83;;;2.33;;
70744;SDS011;59284;31.390;34.904;2022-07-06T12:09:24;5.85;;;2.60;;
70744;SDS011;59284;31.390;34.904;2022-07-06T12:11:50;7.75;;;2.10;;
70744;SDS011;59284;31.390;34.904;2022-07-06T12:14:20;6.97;;;2.40;;
70744;SDS011;59284;31.390;34.904;2022-07-06T12:16:46;8.48;;;3.03;;
70744;SDS011;59284;31.390;34.904;2022-07-06T12:19:14;6.47;;;2.50;;
70744;SDS011;59284;31.390;34.904;2022-07-06T12:24:10;8.23;;;2.75;;
70744;SDS011;59284;31.390;34.904;2022-07-06T12:26:45;8.27;;;2.57;;
70744;SDS011;59284;31.390;34.904;2022-07-06T12:29:12;6.90;;;2.60;;
70744;SDS011;59284;31.390;34.904;2022-07-06T12:34:21;6.57;;;3.00;;
70744;SDS011;59284;31.390;34.904;2022-07-06T12:36:52;8.70;;;2.90;;
70744;SDS011;59284;31.390;34.904;2022-07-06T12:39:23;8.17;;;2.13;;
70744;SDS011;59284;31.390;34.904;2022-07-06T12:41:51;8.85;;;2.80;;
70744;SDS011;59284;31.390;34.904;2022-07-06T12:44:22;9.07;;;2.75;;
70744;SDS011;59284;31.390;34.904;2022-07-06T12:46:49;8.98;;;3.08;;
70744;SDS011;59284;31.390;34.904;2022-07-06T12:49:20;7.40;;;3.03;;
70744;SDS011;59284;31.390;34.904;2022-07-06T12:51:55;5.40;;;2.27;;
70744;SDS011;59284;31.390;34.904;2022-07-06T12:54:35;5.50;;;2.30;;
70744;SDS011;59284;31.390;34.904;2022-07-06T12:57:20;4.72;;;2.80;;
70744;SDS011;59284;31.390;34.904;2022-07-06T13:04:59;5.33;;;2.40;;
70744;SDS011;59284;31.390;34.904;2022-07-06T13:07:34;6.45;;;2.15;;
70744;SDS011;59284;31.390;34.904;2022-07-06T13:10:02;4.55;;;2.20;;
70744;SDS011;59284;31.390;34.904;2022-07-06T13:12:33;5.53;;;3.05;;
70744;SDS011;59284;31.390;34.904;2022-07-06T13:14:59;11.40;;;2.72;;
70744;SDS011;59284;31.390;34.904;2022-07-06T13:17:25;9.03;;;2.53;;
70744;SDS011;59284;31.390;34.904;2022-07-06T13:19:50;8.45;;;2.70;;
70744;SDS011;59284;31.390;34.904;2022-07-06T13:22:16;7.47;;;2.60;;
70744;SDS011;59284;31.390;34.904;2022-07-06T13:24:42;6.65;;;2.28;;
70744;SDS011;59284;31.390;34.904;2022-07-06T13:27:08;6.13;;;2.40;;
70744;SDS011;59284;31.390;34.904;2022-07-06T13:29:34;4.87;;;1.87;;
70744;SDS011;59284;31.390;34.904;2022-07-06T13:32:00;10.85;;;2.60;;
70744;SDS011;59284;31.390;34.904;2022-07-06T13:34:29;11.75;;;2.50;;
70744;SDS011;59284;31.390;34.904;2022-07-06T13:36:56;6.43;;;2.70;;
70744;SDS011;59284;31.390;34.904;2022-07-06T13:39:31;8.40;;;2.60;;
70744;SDS011;59284;31.390;34.904;2022-07-06T13:41:57;5.70;;;2.67;;
70744;SDS011;59284;31.390;34.904;2022-07-06T13:44:23;7.57;;;3.00;;
70744;SDS011;59284;31.390;34.904;2022-07-06T13:46:49;6.78;;;2.28;;
70744;SDS011;59284;31.390;34.904;2022-07-06T13:49:15;5.50;;;2.83;;
70744;SDS011;59284;31.390;34.904;2022-07-06T13:51:41;6.87;;;2.53;;
70744;SDS011;59284;31.390;34.904;2022-07-06T13:54:07;6.75;;;2.17;;
70744;SDS011;59284;31.390;34.904;2022-07-06T13:56:33;5.13;;;2.13;;
70744;SDS011;59284;31.390;34.904;2022-07-06T13:58:58;6.37;;;2.57;;
70744;SDS011;59284;31.390;34.904;2022-07-06T14:01:25;6.88;;;2.58;;
70744;SDS011;59284;31.390;34.904;2022-07-06T14:03:51;5.82;;;2.50;;
70744;SDS011;59284;31.390;34.904;2022-07-06T14:06:17;4.87;;;2.23;;
70744;SDS011;59284;31.390;34.904;2022-07-06T14:08:44;7.88;;;2.15;;
70744;SDS011;59284;31.390;34.904;2022-07-06T14:11:10;5.68;;;2.70;;
70744;SDS011;59284;31.390;34.904;2022-07-06T14:13:36;7.97;;;2.47;;
70744;SDS011;59284;31.390;34.904;2022-07-06T14:16:03;7.57;;;2.97;;
70744;SDS011;59284;31.390;34.904;2022-07-06T14:18:30;6.55;;;2.78;;
70744;SDS011;59284;31.390;34.904;2022-07-06T14:20:56;9.40;;;2.47;;
70744;SDS011;59284;31.390;34.904;2022-07-06T14:23:22;5.20;;;2.45;;
70744;SDS011;59284;31.390;34.904;2022-07-06T14:25:48;5.43;;;2.80;;
70744;SDS011;59284;31.390;34.904;2022-07-06T14:28:15;7.43;;;2.60;;
70744;SDS011;59284;31.390;34.904;2022-07-06T14:30:42;5.70;;;2.30;;
70744;SDS011;59284;31.390;34.904;2022-07-06T14:33:09;7.30;;;2.88;;
70744;SDS011;59284;31.390;34.904;2022-07-06T14:35:38;7.93;;;2.67;;
70744;SDS011;59284;31.390;34.904;2022-07-06T14:38:08;5.03;;;2.53;;
70744;SDS011;59284;31.390;34.904;2022-07-06T14:40:34;7.43;;;2.67;;
70744;SDS011;59284;31.390;34.904;2022-07-06T14:43:02;9.18;;;2.83;;